Airfield :
LOGIN :

Register | Disclaimer

   EN    FR    IT 

 










Legend :    VFR   Marginal VFR   IFR   Intensive IFR   Very Intensive IFR
Visi :
Ceiling :
>= 8 km
>= 3000ft
5 to 8 km
1000 to 3000 ft
1500m to 5 km
500 to 1000 ft
800 to 1500m
200 to 500 ft
< 800m
< 200 ft
Symbols :   Thunderstorms  Fog  Heavy snow  Heavy precipitations  Wind > 20 kt
SIGMETs :     Misc.  Thunderstorms  Icing  Turbulence  Mountain Waves  Volcanic Ashes






- Airport Elevation : 20 ft


EBFN - Koksijde

CURRENT METAR :
  • 281655Z AUTO 21012KT 9999 -RA OVC048/// 10/08 Q1005 BLU

EXPIRED METARs :
  • 281646Z 21012KT 6000 -SHRA FEW008 SCT018TCU BKN030 10/08 Q1005 WHT FCST CANCEL
  • 281625Z 23015KT 6000 -SHRA FEW008 SCT018TCU BKN030 10/08 Q1005 WHT WHT TEMPO GRN
  • 281622Z 23016KT 6000 -SHRA FEW008 SCT018TCU BKN030 10/08 Q1005 WHT WHT TEMPO GRN
  • 281603Z 23010KT 4000 -SHRA FEW008 SCT018TCU BKN030 10/09 Q1005 GRN GRN TEMPO YLO
  • 281552Z 23010KT 4000 -SHRA FEW008 SCT018TCU BKN030 11/09 Q1005 GRN WHT TEMPO GRN
  • 281525Z 22015KT 8000 -SHRA FEW008 SCT018TCU BKN030 12/09 Q1005 WHT WHT TEMPO GRN
  • 281520Z 22015KT 9999 -SHRA FEW008 SCT018TCU BKN030 12/08 Q1005 WHT WHT TEMPO GRN
  • 281455Z 21015KT 9999 -SHRA FEW008 FEW018TCU BKN100 12/08 Q1005 BLU WHT TEMPO GRN
  • 281425Z 22015KT 9999 -SHRA FEW008 FEW018TCU BKN040 11/09 Q1005 BLU WHT TEMPO GRN

TAF TAF EBFN
Valid from the 28 at 13:00 until the 28 at 22:00 UTC


281141Z 2813/2822 22015G25KT 9999 SCT018 SCT040
TEMPO 2813/2822 21020G30KT 4000 -SHRA FEW008 BKN014TCU
PROB40
TEMPO 2813/2822 23025G35KT 3000 TSRA SCT006 BKN012CB



MET'MAP, your aeronautical weather chart ! - Copyright ORBIFLY December 2007 - Disclaimer

ORBIFLY MET'MAP TEAM :

Programming & Development : Alexandra Zaïnal
Concept & original design : Baudouin d'Aumeries
Assistance for programming : Marc-Olivier Méhu
Technical & hardware support : Manuel Goepfert

Contact : metmap@orbifly.com




SOURCES & CREDITS :

   NOAA